Mineral Springs, Arkansas
Current Conditions -  °F | °C
As of 8:53 PM on Saturday 25 Oct 2014 (Local Time) from KTXK Reporting Station
Clear Clear  
Wind Chill: 71°   Ceiling: Unl
Heat Index: 71°   Visibility: 10mi
Dew Point: 64°   Wind: 3mph
Humidity: 78%   Direction: 180°S
Pressure: 30.06"   Gusts: NA
Location:  33.88°N, 93.91°W
Report Text: KTXK 260153Z 18003KT 10SM CLR 22/18 A3006 RMK AO2 SLP177 T02170178
Loading
Personal Weather Stations






























Interactive Weather Map
Tropical Storm Tracking
New forecast layout! Learn more

10-Day Weather Forecast

Advertisements
Track Severe Weather on mobile